CYBQ

Tadoule Lake Airport

Tadoule Lake, Manitoba, Canada

CYBQ 221500Z AUTO 03013G19KT 9SM OVC012 03/02 A3002 RMK SLP183

Observed Flight Rules
Sep-22 @ 15:00 UTC (25 minutes ago)
 
Marginal Visual Flight Rules
Wind Visibility Clouds
30° at 13 knots
 Gusting to 19 knots
9 miles
  • Overcast at 1,200' AGL
Temperatures Readings
Current 3°C / 37°F
Dewpoint 2°C / 36°F
Humidity 93%
Altimeter 30.02" Hg
Pressure 1018.3 hPa
Elevation 262
Observed Flight Rules
Sep-22 @ 15:00 UTC
(25 minutes ago)
 
MVFR
Wind Visibility
30° at 13 knots
 Gusting to 19 knots
9 miles
Clouds
  • Overcast at 1,200' AGL
Temperature Dewpoint
3°C / 37°F 2°C / 36°F
Humidity Altimeter Pressure
93% 30.02" Hg 1018.3 hPa